sensor_id;sensor_type;location;lat;lon;timestamp;P1;durP1;ratioP1;P2;durP2;ratioP2
31308;SDS011;17936;52.446;10.840;2023-03-12T00:01:11;6.95;;;2.00;;
31308;SDS011;17936;52.446;10.840;2023-03-12T00:03:37;6.82;;;1.70;;
31308;SDS011;17936;52.446;10.840;2023-03-12T00:06:04;4.28;;;1.77;;
31308;SDS011;17936;52.446;10.840;2023-03-12T00:08:30;4.78;;;1.92;;
31308;SDS011;17936;52.446;10.840;2023-03-12T00:10:55;6.03;;;1.83;;
31308;SDS011;17936;52.446;10.840;2023-03-12T00:13:21;4.55;;;2.08;;
31308;SDS011;17936;52.446;10.840;2023-03-12T00:15:46;10.80;;;2.03;;
31308;SDS011;17936;52.446;10.840;2023-03-12T00:18:12;6.18;;;1.95;;
31308;SDS011;17936;52.446;10.840;2023-03-12T00:20:37;5.97;;;2.00;;
31308;SDS011;17936;52.446;10.840;2023-03-12T00:23:03;5.00;;;1.83;;
31308;SDS011;17936;52.446;10.840;2023-03-12T00:25:28;5.20;;;1.77;;
31308;SDS011;17936;52.446;10.840;2023-03-12T00:27:54;6.65;;;1.83;;
31308;SDS011;17936;52.446;10.840;2023-03-12T00:30:19;7.45;;;1.85;;
31308;SDS011;17936;52.446;10.840;2023-03-12T00:32:45;3.45;;;1.45;;
31308;SDS011;17936;52.446;10.840;2023-03-12T00:35:11;5.65;;;1.42;;
31308;SDS011;17936;52.446;10.840;2023-03-12T00:37:36;5.80;;;1.73;;
31308;SDS011;17936;52.446;10.840;2023-03-12T00:40:02;6.68;;;1.63;;
31308;SDS011;17936;52.446;10.840;2023-03-12T00:42:30;4.28;;;1.45;;
31308;SDS011;17936;52.446;10.840;2023-03-12T00:44:56;6.03;;;1.85;;
31308;SDS011;17936;52.446;10.840;2023-03-12T00:47:21;7.05;;;1.88;;
31308;SDS011;17936;52.446;10.840;2023-03-12T00:49:47;8.88;;;2.05;;
31308;SDS011;17936;52.446;10.840;2023-03-12T00:52:12;7.18;;;1.70;;
31308;SDS011;17936;52.446;10.840;2023-03-12T00:54:38;6.85;;;1.77;;
31308;SDS011;17936;52.446;10.840;2023-03-12T00:57:03;6.00;;;2.13;;
31308;SDS011;17936;52.446;10.840;2023-03-12T00:59:29;4.43;;;1.55;;
31308;SDS011;17936;52.446;10.840;2023-03-12T01:01:55;9.20;;;1.65;;
31308;SDS011;17936;52.446;10.840;2023-03-12T01:04:20;5.55;;;1.88;;
31308;SDS011;17936;52.446;10.840;2023-03-12T01:06:45;5.75;;;2.03;;
31308;SDS011;17936;52.446;10.840;2023-03-12T01:09:11;4.53;;;1.50;;
31308;SDS011;17936;52.446;10.840;2023-03-12T01:11:37;5.32;;;1.63;;
31308;SDS011;17936;52.446;10.840;2023-03-12T01:14:03;7.55;;;1.63;;
31308;SDS011;17936;52.446;10.840;2023-03-12T01:16:30;9.63;;;1.92;;
31308;SDS011;17936;52.446;10.840;2023-03-12T01:18:57;6.57;;;1.95;;
31308;SDS011;17936;52.446;10.840;2023-03-12T01:21:24;4.90;;;1.80;;
31308;SDS011;17936;52.446;10.840;2023-03-12T01:23:50;5.38;;;1.77;;
31308;SDS011;17936;52.446;10.840;2023-03-12T01:26:16;5.18;;;1.92;;
31308;SDS011;17936;52.446;10.840;2023-03-12T01:28:42;7.75;;;1.73;;
31308;SDS011;17936;52.446;10.840;2023-03-12T01:31:09;4.20;;;1.80;;
31308;SDS011;17936;52.446;10.840;2023-03-12T01:33:36;3.63;;;1.65;;
31308;SDS011;17936;52.446;10.840;2023-03-12T01:36:01;3.45;;;1.67;;
31308;SDS011;17936;52.446;10.840;2023-03-12T01:38:27;4.75;;;1.90;;
31308;SDS011;17936;52.446;10.840;2023-03-12T01:40:52;6.28;;;1.77;;
31308;SDS011;17936;52.446;10.840;2023-03-12T01:43:29;5.55;;;1.63;;
31308;SDS011;17936;52.446;10.840;2023-03-12T01:49:06;6.72;;;1.70;;
31308;SDS011;17936;52.446;10.840;2023-03-12T01:54:16;3.35;;;1.38;;
31308;SDS011;17936;52.446;10.840;2023-03-12T01:56:45;5.45;;;1.83;;
31308;SDS011;17936;52.446;10.840;2023-03-12T01:59:14;3.03;;;1.65;;
31308;SDS011;17936;52.446;10.840;2023-03-12T02:04:09;1.85;;;1.02;;
31308;SDS011;17936;52.446;10.840;2023-03-12T02:06:38;5.78;;;1.75;;
31308;SDS011;17936;52.446;10.840;2023-03-12T02:09:20;4.10;;;1.63;;
31308;SDS011;17936;52.446;10.840;2023-03-12T02:11:47;7.18;;;1.40;;
31308;SDS011;17936;52.446;10.840;2023-03-12T02:14:12;3.45;;;1.33;;
31308;SDS011;17936;52.446;10.840;2023-03-12T02:16:38;2.70;;;1.40;;
31308;SDS011;17936;52.446;10.840;2023-03-12T02:19:04;3.78;;;1.95;;
31308;SDS011;17936;52.446;10.840;2023-03-12T02:21:47;6.13;;;1.60;;
31308;SDS011;17936;52.446;10.840;2023-03-12T02:24:27;3.90;;;1.30;;
31308;SDS011;17936;52.446;10.840;2023-03-12T02:27:01;5.70;;;1.65;;
31308;SDS011;17936;52.446;10.840;2023-03-12T02:29:28;4.80;;;1.60;;
31308;SDS011;17936;52.446;10.840;2023-03-12T02:31:56;11.02;;;1.50;;
31308;SDS011;17936;52.446;10.840;2023-03-12T02:34:24;5.35;;;1.65;;
31308;SDS011;17936;52.446;10.840;2023-03-12T02:36:49;2.83;;;1.23;;
31308;SDS011;17936;52.446;10.840;2023-03-12T02:39:15;10.18;;;1.73;;
31308;SDS011;17936;52.446;10.840;2023-03-12T02:41:42;7.03;;;1.52;;
31308;SDS011;17936;52.446;10.840;2023-03-12T02:44:12;4.43;;;1.23;;
31308;SDS011;17936;52.446;10.840;2023-03-12T02:46:43;4.90;;;1.60;;
31308;SDS011;17936;52.446;10.840;2023-03-12T02:49:10;5.50;;;1.52;;
31308;SDS011;17936;52.446;10.840;2023-03-12T02:51:37;6.18;;;1.58;;
31308;SDS011;17936;52.446;10.840;2023-03-12T02:54:04;6.97;;;1.70;;
31308;SDS011;17936;52.446;10.840;2023-03-12T02:56:30;10.75;;;1.77;;
31308;SDS011;17936;52.446;10.840;2023-03-12T02:58:55;3.83;;;1.60;;
31308;SDS011;17936;52.446;10.840;2023-03-12T03:01:21;6.10;;;1.65;;
31308;SDS011;17936;52.446;10.840;2023-03-12T03:03:47;2.17;;;1.23;;
31308;SDS011;17936;52.446;10.840;2023-03-12T03:06:12;3.53;;;1.70;;
31308;SDS011;17936;52.446;10.840;2023-03-12T03:08:38;4.38;;;1.35;;
31308;SDS011;17936;52.446;10.840;2023-03-12T03:11:04;10.18;;;1.55;;
31308;SDS011;17936;52.446;10.840;2023-03-12T03:13:30;5.70;;;1.85;;
31308;SDS011;17936;52.446;10.840;2023-03-12T03:15:57;5.32;;;1.77;;
31308;SDS011;17936;52.446;10.840;2023-03-12T03:18:24;5.85;;;1.42;;
31308;SDS011;17936;52.446;10.840;2023-03-12T03:21:00;3.05;;;1.35;;
31308;SDS011;17936;52.446;10.840;2023-03-12T03:23:27;3.75;;;1.20;;
31308;SDS011;17936;52.446;10.840;2023-03-12T03:25:53;3.22;;;1.38;;
31308;SDS011;17936;52.446;10.840;2023-03-12T03:28:19;2.20;;;0.98;;
31308;SDS011;17936;52.446;10.840;2023-03-12T03:30:46;3.13;;;1.42;;
31308;SDS011;17936;52.446;10.840;2023-03-12T03:33:12;2.53;;;1.30;;
31308;SDS011;17936;52.446;10.840;2023-03-12T03:35:38;2.70;;;1.20;;
31308;SDS011;17936;52.446;10.840;2023-03-12T03:38:03;4.35;;;1.75;;
31308;SDS011;17936;52.446;10.840;2023-03-12T03:40:29;5.38;;;1.48;;
31308;SDS011;17936;52.446;10.840;2023-03-12T03:42:54;6.25;;;1.83;;
31308;SDS011;17936;52.446;10.840;2023-03-12T03:45:20;3.70;;;1.73;;
31308;SDS011;17936;52.446;10.840;2023-03-12T03:47:46;7.13;;;1.65;;
31308;SDS011;17936;52.446;10.840;2023-03-12T03:50:11;4.38;;;1.17;;
31308;SDS011;17936;52.446;10.840;2023-03-12T03:52:37;3.35;;;1.88;;
31308;SDS011;17936;52.446;10.840;2023-03-12T03:55:03;3.00;;;1.27;;
31308;SDS011;17936;52.446;10.840;2023-03-12T03:57:29;7.38;;;1.63;;
31308;SDS011;17936;52.446;10.840;2023-03-12T03:59:55;4.60;;;1.60;;
31308;SDS011;17936;52.446;10.840;2023-03-12T04:02:22;5.55;;;1.85;;
31308;SDS011;17936;52.446;10.840;2023-03-12T04:04:49;5.03;;;1.70;;
31308;SDS011;17936;52.446;10.840;2023-03-12T04:07:15;6.85;;;1.58;;
31308;SDS011;17936;52.446;10.840;2023-03-12T04:09:40;6.88;;;1.85;;
31308;SDS011;17936;52.446;10.840;2023-03-12T04:12:06;3.03;;;1.55;;
31308;SDS011;17936;52.446;10.840;2023-03-12T04:14:33;3.90;;;1.70;;
31308;SDS011;17936;52.446;10.840;2023-03-12T04:16:59;4.85;;;1.60;;
31308;SDS011;17936;52.446;10.840;2023-03-12T04:19:24;3.97;;;1.70;;
31308;SDS011;17936;52.446;10.840;2023-03-12T04:21:50;2.42;;;1.38;;
31308;SDS011;17936;52.446;10.840;2023-03-12T04:24:16;6.18;;;1.48;;
31308;SDS011;17936;52.446;10.840;2023-03-12T04:26:42;4.82;;;1.80;;
31308;SDS011;17936;52.446;10.840;2023-03-12T04:29:08;1.83;;;1.20;;
31308;SDS011;17936;52.446;10.840;2023-03-12T04:31:33;4.15;;;1.92;;
31308;SDS011;17936;52.446;10.840;2023-03-12T04:33:59;10.07;;;1.92;;
31308;SDS011;17936;52.446;10.840;2023-03-12T04:36:25;5.55;;;1.77;;
31308;SDS011;17936;52.446;10.840;2023-03-12T04:38:51;10.05;;;1.80;;
31308;SDS011;17936;52.446;10.840;2023-03-12T04:41:16;5.88;;;1.88;;
31308;SDS011;17936;52.446;10.840;2023-03-12T04:43:42;6.72;;;1.50;;
31308;SDS011;17936;52.446;10.840;2023-03-12T04:46:07;5.25;;;1.95;;
31308;SDS011;17936;52.446;10.840;2023-03-12T04:48:33;5.40;;;1.60;;
31308;SDS011;17936;52.446;10.840;2023-03-12T04:51:00;4.50;;;1.70;;
31308;SDS011;17936;52.446;10.840;2023-03-12T04:53:26;5.25;;;1.65;;
31308;SDS011;17936;52.446;10.840;2023-03-12T04:55:51;4.20;;;1.73;;
31308;SDS011;17936;52.446;10.840;2023-03-12T04:58:17;6.22;;;1.88;;
31308;SDS011;17936;52.446;10.840;2023-03-12T05:00:44;3.95;;;1.75;;
31308;SDS011;17936;52.446;10.840;2023-03-12T05:03:11;4.45;;;1.90;;
31308;SDS011;17936;52.446;10.840;2023-03-12T05:05:36;2.42;;;1.35;;
31308;SDS011;17936;52.446;10.840;2023-03-12T05:08:02;3.90;;;1.73;;
31308;SDS011;17936;52.446;10.840;2023-03-12T05:10:28;4.88;;;1.95;;
31308;SDS011;17936;52.446;10.840;2023-03-12T05:12:54;4.78;;;1.95;;
31308;SDS011;17936;52.446;10.840;2023-03-12T05:15:19;8.15;;;1.85;;
31308;SDS011;17936;52.446;10.840;2023-03-12T05:17:45;5.13;;;1.85;;
31308;SDS011;17936;52.446;10.840;2023-03-12T05:20:11;6.53;;;2.20;;
31308;SDS011;17936;52.446;10.840;2023-03-12T05:22:37;6.35;;;1.65;;
31308;SDS011;17936;52.446;10.840;2023-03-12T05:25:04;6.30;;;2.10;;
31308;SDS011;17936;52.446;10.840;2023-03-12T05:27:30;4.20;;;1.83;;
31308;SDS011;17936;52.446;10.840;2023-03-12T05:29:56;4.20;;;1.80;;
31308;SDS011;17936;52.446;10.840;2023-03-12T05:32:22;6.38;;;1.98;;
31308;SDS011;17936;52.446;10.840;2023-03-12T05:34:47;6.35;;;2.10;;
31308;SDS011;17936;52.446;10.840;2023-03-12T05:37:13;4.30;;;1.50;;
31308;SDS011;17936;52.446;10.840;2023-03-12T05:39:38;4.18;;;2.15;;
31308;SDS011;17936;52.446;10.840;2023-03-12T05:42:10;4.35;;;1.65;;
31308;SDS011;17936;52.446;10.840;2023-03-12T05:44:36;4.97;;;1.70;;
31308;SDS011;17936;52.446;10.840;2023-03-12T05:47:02;5.68;;;1.60;;
31308;SDS011;17936;52.446;10.840;2023-03-12T05:49:27;5.78;;;2.05;;
31308;SDS011;17936;52.446;10.840;2023-03-12T05:51:53;4.80;;;1.92;;
31308;SDS011;17936;52.446;10.840;2023-03-12T05:54:18;6.38;;;1.80;;
31308;SDS011;17936;52.446;10.840;2023-03-12T05:56:44;4.72;;;1.50;;
31308;SDS011;17936;52.446;10.840;2023-03-12T05:59:09;7.63;;;1.60;;
31308;SDS011;17936;52.446;10.840;2023-03-12T06:01:35;6.55;;;1.88;;
31308;SDS011;17936;52.446;10.840;2023-03-12T06:04:01;11.52;;;2.33;;
31308;SDS011;17936;52.446;10.840;2023-03-12T06:06:28;3.97;;;1.70;;
31308;SDS011;17936;52.446;10.840;2023-03-12T06:08:55;4.05;;;1.92;;
31308;SDS011;17936;52.446;10.840;2023-03-12T06:11:20;5.22;;;1.75;;
31308;SDS011;17936;52.446;10.840;2023-03-12T06:13:46;10.85;;;2.45;;
31308;SDS011;17936;52.446;10.840;2023-03-12T06:16:21;4.63;;;2.50;;
31308;SDS011;17936;52.446;10.840;2023-03-12T06:18:52;5.22;;;2.08;;
31308;SDS011;17936;52.446;10.840;2023-03-12T06:21:19;8.25;;;2.10;;
31308;SDS011;17936;52.446;10.840;2023-03-12T06:23:47;6.93;;;2.47;;
31308;SDS011;17936;52.446;10.840;2023-03-12T06:26:13;4.00;;;1.92;;
31308;SDS011;17936;52.446;10.840;2023-03-12T06:28:40;5.75;;;2.30;;
31308;SDS011;17936;52.446;10.840;2023-03-12T06:31:06;4.00;;;2.45;;
31308;SDS011;17936;52.446;10.840;2023-03-12T06:33:33;7.25;;;2.00;;
31308;SDS011;17936;52.446;10.840;2023-03-12T06:36:00;5.82;;;2.05;;
31308;SDS011;17936;52.446;10.840;2023-03-12T06:38:27;6.82;;;1.95;;
31308;SDS011;17936;52.446;10.840;2023-03-12T06:40:56;6.38;;;2.45;;
31308;SDS011;17936;52.446;10.840;2023-03-12T06:43:24;9.07;;;3.38;;
31308;SDS011;17936;52.446;10.840;2023-03-12T06:45:52;10.13;;;3.88;;
31308;SDS011;17936;52.446;10.840;2023-03-12T06:48:19;8.60;;;3.63;;
31308;SDS011;17936;52.446;10.840;2023-03-12T06:50:45;7.28;;;3.45;;
31308;SDS011;17936;52.446;10.840;2023-03-12T06:53:10;5.35;;;2.60;;
31308;SDS011;17936;52.446;10.840;2023-03-12T06:55:36;4.93;;;2.40;;
31308;SDS011;17936;52.446;10.840;2023-03-12T06:58:02;6.05;;;3.00;;
31308;SDS011;17936;52.446;10.840;2023-03-12T07:00:28;8.35;;;3.10;;
31308;SDS011;17936;52.446;10.840;2023-03-12T07:02:54;15.02;;;3.67;;
31308;SDS011;17936;52.446;10.840;2023-03-12T07:05:21;5.95;;;2.67;;
31308;SDS011;17936;52.446;10.840;2023-03-12T07:07:47;4.72;;;2.50;;
31308;SDS011;17936;52.446;10.840;2023-03-12T07:10:12;6.80;;;3.60;;
31308;SDS011;17936;52.446;10.840;2023-03-12T07:12:38;6.00;;;2.55;;
31308;SDS011;17936;52.446;10.840;2023-03-12T07:15:04;9.77;;;2.17;;
31308;SDS011;17936;52.446;10.840;2023-03-12T07:17:30;10.85;;;2.10;;
31308;SDS011;17936;52.446;10.840;2023-03-12T07:19:55;4.10;;;1.80;;
31308;SDS011;17936;52.446;10.840;2023-03-12T07:22:21;4.40;;;1.90;;
31308;SDS011;17936;52.446;10.840;2023-03-12T07:24:46;6.28;;;2.30;;
31308;SDS011;17936;52.446;10.840;2023-03-12T07:27:12;6.47;;;2.65;;
31308;SDS011;17936;52.446;10.840;2023-03-12T07:29:37;5.40;;;2.90;;
31308;SDS011;17936;52.446;10.840;2023-03-12T07:32:03;5.18;;;2.58;;
31308;SDS011;17936;52.446;10.840;2023-03-12T07:34:29;4.80;;;2.75;;
31308;SDS011;17936;52.446;10.840;2023-03-12T07:36:54;9.85;;;4.18;;
31308;SDS011;17936;52.446;10.840;2023-03-12T07:39:20;7.07;;;3.67;;
31308;SDS011;17936;52.446;10.840;2023-03-12T07:41:46;10.77;;;3.47;;
31308;SDS011;17936;52.446;10.840;2023-03-12T07:44:11;5.82;;;2.67;;
31308;SDS011;17936;52.446;10.840;2023-03-12T07:46:37;4.07;;;2.30;;
31308;SDS011;17936;52.446;10.840;2023-03-12T07:49:03;7.07;;;2.20;;
31308;SDS011;17936;52.446;10.840;2023-03-12T07:51:28;5.65;;;2.20;;
31308;SDS011;17936;52.446;10.840;2023-03-12T07:53:54;4.25;;;2.05;;
31308;SDS011;17936;52.446;10.840;2023-03-12T07:56:20;13.13;;;2.05;;
31308;SDS011;17936;52.446;10.840;2023-03-12T07:58:46;5.80;;;2.17;;
31308;SDS011;17936;52.446;10.840;2023-03-12T08:01:11;7.05;;;2.05;;
31308;SDS011;17936;52.446;10.840;2023-03-12T08:03:37;10.32;;;2.08;;
31308;SDS011;17936;52.446;10.840;2023-03-12T08:06:03;6.03;;;1.92;;
31308;SDS011;17936;52.446;10.840;2023-03-12T08:08:29;5.47;;;1.95;;
31308;SDS011;17936;52.446;10.840;2023-03-12T08:10:55;6.03;;;1.55;;
31308;SDS011;17936;52.446;10.840;2023-03-12T08:13:21;8.32;;;2.85;;
31308;SDS011;17936;52.446;10.840;2023-03-12T08:15:48;12.10;;;3.35;;
31308;SDS011;17936;52.446;10.840;2023-03-12T08:18:15;4.70;;;1.95;;
31308;SDS011;17936;52.446;10.840;2023-03-12T08:20:41;6.80;;;1.90;;
31308;SDS011;17936;52.446;10.840;2023-03-12T08:23:07;5.22;;;1.63;;
31308;SDS011;17936;52.446;10.840;2023-03-12T08:25:33;5.40;;;1.92;;
31308;SDS011;17936;52.446;10.840;2023-03-12T08:28:00;4.18;;;1.83;;
31308;SDS011;17936;52.446;10.840;2023-03-12T08:30:27;4.40;;;1.90;;
31308;SDS011;17936;52.446;10.840;2023-03-12T08:32:54;5.28;;;1.83;;
31308;SDS011;17936;52.446;10.840;2023-03-12T08:35:20;5.82;;;1.83;;
31308;SDS011;17936;52.446;10.840;2023-03-12T08:37:46;10.75;;;1.95;;
31308;SDS011;17936;52.446;10.840;2023-03-12T08:40:12;3.15;;;1.63;;
31308;SDS011;17936;52.446;10.840;2023-03-12T08:42:38;4.93;;;1.77;;
31308;SDS011;17936;52.446;10.840;2023-03-12T08:45:08;7.30;;;1.73;;
31308;SDS011;17936;52.446;10.840;2023-03-12T08:47:34;7.13;;;2.20;;
31308;SDS011;17936;52.446;10.840;2023-03-12T08:50:00;4.20;;;1.50;;
31308;SDS011;17936;52.446;10.840;2023-03-12T08:52:26;5.03;;;1.75;;
31308;SDS011;17936;52.446;10.840;2023-03-12T08:54:52;3.72;;;1.63;;
31308;SDS011;17936;52.446;10.840;2023-03-12T08:57:18;7.25;;;1.70;;
31308;SDS011;17936;52.446;10.840;2023-03-12T08:59:43;5.38;;;1.83;;
31308;SDS011;17936;52.446;10.840;2023-03-12T09:02:12;11.27;;;1.58;;
31308;SDS011;17936;52.446;10.840;2023-03-12T09:04:37;5.35;;;1.60;;
31308;SDS011;17936;52.446;10.840;2023-03-12T09:07:03;7.60;;;1.65;;
31308;SDS011;17936;52.446;10.840;2023-03-12T09:09:29;3.72;;;1.42;;
31308;SDS011;17936;52.446;10.840;2023-03-12T09:11:55;3.28;;;1.35;;
31308;SDS011;17936;52.446;10.840;2023-03-12T09:14:21;3.22;;;1.20;;
31308;SDS011;17936;52.446;10.840;2023-03-12T09:16:46;5.05;;;1.83;;
31308;SDS011;17936;52.446;10.840;2023-03-12T09:19:12;8.40;;;1.92;;
31308;SDS011;17936;52.446;10.840;2023-03-12T09:21:38;4.07;;;1.33;;
31308;SDS011;17936;52.446;10.840;2023-03-12T09:24:04;3.58;;;1.30;;
31308;SDS011;17936;52.446;10.840;2023-03-12T09:26:30;6.30;;;1.55;;
31308;SDS011;17936;52.446;10.840;2023-03-12T09:28:56;7.47;;;1.38;;
31308;SDS011;17936;52.446;10.840;2023-03-12T09:31:23;5.53;;;1.70;;
31308;SDS011;17936;52.446;10.840;2023-03-12T09:33:50;2.50;;;1.35;;
31308;SDS011;17936;52.446;10.840;2023-03-12T09:36:16;5.18;;;1.45;;
31308;SDS011;17936;52.446;10.840;2023-03-12T09:38:41;4.85;;;1.20;;
31308;SDS011;17936;52.446;10.840;2023-03-12T09:41:13;4.45;;;2.03;;
31308;SDS011;17936;52.446;10.840;2023-03-12T09:43:48;5.43;;;1.42;;
31308;SDS011;17936;52.446;10.840;2023-03-12T09:46:25;6.22;;;1.70;;
31308;SDS011;17936;52.446;10.840;2023-03-12T09:49:04;4.28;;;1.55;;
31308;SDS011;17936;52.446;10.840;2023-03-12T09:51:37;5.82;;;1.75;;
31308;SDS011;17936;52.446;10.840;2023-03-12T09:54:12;3.00;;;1.23;;
31308;SDS011;17936;52.446;10.840;2023-03-12T09:56:47;3.80;;;1.48;;
31308;SDS011;17936;52.446;10.840;2023-03-12T09:59:14;4.78;;;1.35;;
31308;SDS011;17936;52.446;10.840;2023-03-12T10:01:41;4.88;;;1.13;;
31308;SDS011;17936;52.446;10.840;2023-03-12T10:07:06;6.72;;;1.60;;
31308;SDS011;17936;52.446;10.840;2023-03-12T10:12:23;2.65;;;1.20;;
31308;SDS011;17936;52.446;10.840;2023-03-12T10:17:29;7.60;;;2.50;;
31308;SDS011;17936;52.446;10.840;2023-03-12T10:20:15;5.25;;;1.42;;
31308;SDS011;17936;52.446;10.840;2023-03-12T10:25:50;4.50;;;1.80;;
31308;SDS011;17936;52.446;10.840;2023-03-12T10:28:36;9.38;;;1.98;;
31308;SDS011;17936;52.446;10.840;2023-03-12T10:31:11;5.38;;;1.98;;
31308;SDS011;17936;52.446;10.840;2023-03-12T10:33:57;4.05;;;2.17;;
31308;SDS011;17936;52.446;10.840;2023-03-12T10:38:57;5.93;;;1.63;;
31308;SDS011;17936;52.446;10.840;2023-03-12T10:41:24;3.35;;;1.75;;
31308;SDS011;17936;52.446;10.840;2023-03-12T10:43:54;8.55;;;2.00;;
31308;SDS011;17936;52.446;10.840;2023-03-12T10:51:55;4.13;;;1.63;;
31308;SDS011;17936;52.446;10.840;2023-03-12T10:54:36;3.47;;;1.70;;
31308;SDS011;17936;52.446;10.840;2023-03-12T10:57:04;4.15;;;1.25;;
31308;SDS011;17936;52.446;10.840;2023-03-12T10:59:32;7.43;;;1.65;;
31308;SDS011;17936;52.446;10.840;2023-03-12T11:02:00;4.50;;;2.15;;
31308;SDS011;17936;52.446;10.840;2023-03-12T11:04:30;5.78;;;1.85;;
31308;SDS011;17936;52.446;10.840;2023-03-12T11:07:06;6.68;;;2.25;;
31308;SDS011;17936;52.446;10.840;2023-03-12T11:09:43;3.80;;;1.88;;
31308;SDS011;17936;52.446;10.840;2023-03-12T11:12:22;14.18;;;6.28;;
31308;SDS011;17936;52.446;10.840;2023-03-12T11:14:53;8.30;;;2.35;;
31308;SDS011;17936;52.446;10.840;2023-03-12T11:17:20;11.18;;;3.50;;
31308;SDS011;17936;52.446;10.840;2023-03-12T11:19:48;7.38;;;2.20;;
31308;SDS011;17936;52.446;10.840;2023-03-12T11:22:13;7.57;;;2.65;;
31308;SDS011;17936;52.446;10.840;2023-03-12T11:24:56;8.35;;;3.03;;
31308;SDS011;17936;52.446;10.840;2023-03-12T11:27:40;7.43;;;2.10;;
31308;SDS011;17936;52.446;10.840;2023-03-12T11:30:15;6.32;;;1.85;;
31308;SDS011;17936;52.446;10.840;2023-03-12T11:32:46;6.00;;;2.05;;
31308;SDS011;17936;52.446;10.840;2023-03-12T11:35:14;7.45;;;1.52;;
31308;SDS011;17936;52.446;10.840;2023-03-12T11:46:25;6.85;;;1.67;;
31308;SDS011;17936;52.446;10.840;2023-03-12T11:54:31;10.40;;;4.55;;
31308;SDS011;17936;52.446;10.840;2023-03-12T11:57:08;9.82;;;2.42;;
31308;SDS011;17936;52.446;10.840;2023-03-12T11:59:38;4.25;;;1.73;;
31308;SDS011;17936;52.446;10.840;2023-03-12T12:02:20;3.80;;;1.10;;
31308;SDS011;17936;52.446;10.840;2023-03-12T12:05:08;7.55;;;1.70;;
31308;SDS011;17936;52.446;10.840;2023-03-12T12:10:30;5.43;;;1.70;;
31308;SDS011;17936;52.446;10.840;2023-03-12T12:15:59;3.53;;;1.95;;
31308;SDS011;17936;52.446;10.840;2023-03-12T12:19:13;9.15;;;1.70;;
31308;SDS011;17936;52.446;10.840;2023-03-12T12:21:41;5.15;;;1.70;;
31308;SDS011;17936;52.446;10.840;2023-03-12T12:24:32;2.95;;;1.20;;
31308;SDS011;17936;52.446;10.840;2023-03-12T12:27:19;3.25;;;1.10;;
31308;SDS011;17936;52.446;10.840;2023-03-12T12:29:55;3.30;;;1.25;;
31308;SDS011;17936;52.446;10.840;2023-03-12T12:32:55;4.03;;;1.60;;
31308;SDS011;17936;52.446;10.840;2023-03-12T12:35:36;2.90;;;1.03;;
31308;SDS011;17936;52.446;10.840;2023-03-12T12:38:12;1.48;;;0.82;;
31308;SDS011;17936;52.446;10.840;2023-03-12T12:40:54;5.28;;;1.40;;
31308;SDS011;17936;52.446;10.840;2023-03-12T12:43:32;7.40;;;1.10;;
31308;SDS011;17936;52.446;10.840;2023-03-12T12:46:10;5.32;;;1.02;;
31308;SDS011;17936;52.446;10.840;2023-03-12T12:48:47;6.50;;;1.30;;
31308;SDS011;17936;52.446;10.840;2023-03-12T12:51:38;6.00;;;1.60;;
31308;SDS011;17936;52.446;10.840;2023-03-12T12:54:19;6.43;;;1.45;;
31308;SDS011;17936;52.446;10.840;2023-03-12T12:57:02;4.03;;;1.25;;
31308;SDS011;17936;52.446;10.840;2023-03-12T12:59:39;4.03;;;1.25;;
31308;SDS011;17936;52.446;10.840;2023-03-12T13:02:26;6.35;;;1.30;;
31308;SDS011;17936;52.446;10.840;2023-03-12T13:04:55;6.15;;;1.52;;
31308;SDS011;17936;52.446;10.840;2023-03-12T13:09:48;4.25;;;1.45;;
31308;SDS011;17936;52.446;10.840;2023-03-12T13:12:31;4.25;;;1.27;;
31308;SDS011;17936;52.446;10.840;2023-03-12T13:14:59;8.18;;;2.13;;
31308;SDS011;17936;52.446;10.840;2023-03-12T13:17:27;6.60;;;2.35;;
31308;SDS011;17936;52.446;10.840;2023-03-12T13:19:57;5.43;;;1.45;;
31308;SDS011;17936;52.446;10.840;2023-03-12T13:28:30;4.82;;;2.20;;
31308;SDS011;17936;52.446;10.840;2023-03-12T13:33:52;8.02;;;2.05;;
31308;SDS011;17936;52.446;10.840;2023-03-12T13:36:23;6.18;;;1.85;;
31308;SDS011;17936;52.446;10.840;2023-03-12T13:38:54;6.97;;;1.80;;
31308;SDS011;17936;52.446;10.840;2023-03-12T13:41:47;4.43;;;1.20;;
31308;SDS011;17936;52.446;10.840;2023-03-12T13:52:48;5.57;;;1.60;;
31308;SDS011;17936;52.446;10.840;2023-03-12T13:55:35;2.95;;;1.52;;
31308;SDS011;17936;52.446;10.840;2023-03-12T14:00:35;8.73;;;1.90;;
31308;SDS011;17936;52.446;10.840;2023-03-12T14:03:19;4.20;;;1.73;;
31308;SDS011;17936;52.446;10.840;2023-03-12T14:06:16;4.05;;;1.60;;
31308;SDS011;17936;52.446;10.840;2023-03-12T14:14:22;6.57;;;1.80;;
31308;SDS011;17936;52.446;10.840;2023-03-12T14:17:00;3.33;;;1.90;;
31308;SDS011;17936;52.446;10.840;2023-03-12T14:19:30;8.68;;;2.58;;
31308;SDS011;17936;52.446;10.840;2023-03-12T14:22:02;6.28;;;1.80;;
31308;SDS011;17936;52.446;10.840;2023-03-12T14:24:34;5.35;;;2.10;;
31308;SDS011;17936;52.446;10.840;2023-03-12T14:27:04;5.57;;;2.33;;
31308;SDS011;17936;52.446;10.840;2023-03-12T14:29:35;5.28;;;2.08;;
31308;SDS011;17936;52.446;10.840;2023-03-12T14:32:05;5.68;;;1.90;;
31308;SDS011;17936;52.446;10.840;2023-03-12T14:34:50;6.07;;;2.38;;
31308;SDS011;17936;52.446;10.840;2023-03-12T14:37:39;5.07;;;2.35;;
31308;SDS011;17936;52.446;10.840;2023-03-12T14:42:50;4.43;;;2.13;;
31308;SDS011;17936;52.446;10.840;2023-03-12T14:45:17;4.50;;;1.92;;
31308;SDS011;17936;52.446;10.840;2023-03-12T14:47:45;3.78;;;1.77;;
31308;SDS011;17936;52.446;10.840;2023-03-12T14:50:21;3.95;;;1.35;;
31308;SDS011;17936;52.446;10.840;2023-03-12T14:52:55;4.45;;;2.13;;
31308;SDS011;17936;52.446;10.840;2023-03-12T14:55:35;7.10;;;2.17;;
31308;SDS011;17936;52.446;10.840;2023-03-12T14:58:04;5.85;;;2.53;;
31308;SDS011;17936;52.446;10.840;2023-03-12T15:00:30;4.90;;;2.75;;
31308;SDS011;17936;52.446;10.840;2023-03-12T15:02:56;12.98;;;3.65;;
31308;SDS011;17936;52.446;10.840;2023-03-12T15:05:26;5.45;;;2.70;;
31308;SDS011;17936;52.446;10.840;2023-03-12T15:07:54;5.55;;;2.42;;
31308;SDS011;17936;52.446;10.840;2023-03-12T15:12:51;11.05;;;3.22;;
31308;SDS011;17936;52.446;10.840;2023-03-12T15:17:54;10.00;;;4.43;;
31308;SDS011;17936;52.446;10.840;2023-03-12T15:20:20;17.73;;;10.05;;
31308;SDS011;17936;52.446;10.840;2023-03-12T15:22:48;8.82;;;5.32;;
31308;SDS011;17936;52.446;10.840;2023-03-12T15:25:19;27.60;;;14.43;;
31308;SDS011;17936;52.446;10.840;2023-03-12T15:28:29;14.40;;;8.07;;
31308;SDS011;17936;52.446;10.840;2023-03-12T15:31:03;9.30;;;4.32;;
31308;SDS011;17936;52.446;10.840;2023-03-12T15:33:30;10.93;;;5.60;;
31308;SDS011;17936;52.446;10.840;2023-03-12T15:35:57;22.23;;;10.13;;
31308;SDS011;17936;52.446;10.840;2023-03-12T15:38:23;37.40;;;20.05;;
31308;SDS011;17936;52.446;10.840;2023-03-12T15:40:49;19.98;;;10.45;;
31308;SDS011;17936;52.446;10.840;2023-03-12T15:43:18;23.83;;;15.02;;
31308;SDS011;17936;52.446;10.840;2023-03-12T15:45:45;19.67;;;10.13;;
31308;SDS011;17936;52.446;10.840;2023-03-12T15:48:23;18.77;;;9.43;;
31308;SDS011;17936;52.446;10.840;2023-03-12T15:50:55;16.70;;;8.93;;
31308;SDS011;17936;52.446;10.840;2023-03-12T15:58:45;10.55;;;6.13;;
31308;SDS011;17936;52.446;10.840;2023-03-12T16:01:14;12.55;;;5.63;;
31308;SDS011;17936;52.446;10.840;2023-03-12T16:03:42;86.78;;;34.15;;
31308;SDS011;17936;52.446;10.840;2023-03-12T16:06:19;28.35;;;14.40;;
31308;SDS011;17936;52.446;10.840;2023-03-12T16:08:49;34.80;;;20.55;;
31308;SDS011;17936;52.446;10.840;2023-03-12T16:11:25;11.43;;;6.45;;
31308;SDS011;17936;52.446;10.840;2023-03-12T16:14:02;12.20;;;6.47;;